Terminal Aerodrome Forecast
Issued by NWS

Home | Current Version | Previous Version | Text Only | Print | Product List | Glossary On
Versions: 1 2 3 4 5 6 7 8 9 10 11 12 13 14 15 16 17 18 19 20
000
FTUS42 KTAE 272300
TAFABY
TAF
KABY 272320Z 2800/2824 05004KT P6SM BKN150 OVC250
     FM281200 06010G15KT 6SM -RA OVC020=

USA.gov is the U.S. government's official web portal to all federal, state and local government web resources and services.